createdAt,value
2022-11-18T00:04:48.191Z,80.82
2022-11-18T00:09:51.419Z,80.14
2022-11-18T00:14:58.461Z,79.94
2022-11-18T00:20:00.312Z,81.43
2022-11-18T00:25:02.131Z,82.70
2022-11-18T00:30:04.289Z,81.14
2022-11-18T00:35:06.537Z,80.41
2022-11-18T00:40:09.057Z,80.83
2022-11-18T00:45:10.912Z,85.51
2022-11-18T00:50:13.086Z,83.24
2022-11-18T00:55:14.948Z,81.37
2022-11-18T01:00:17.993Z,82.13
2022-11-18T01:05:19.853Z,83.08
2022-11-18T01:10:21.649Z,85.49
2022-11-18T01:15:23.474Z,85.03
2022-11-18T01:20:25.267Z,82.76
2022-11-18T01:25:27.968Z,83.61
2022-11-18T01:30:29.802Z,83.61
2022-11-18T01:35:36.390Z,81.15
2022-11-18T01:40:39.043Z,81.18
2022-11-18T01:45:43.116Z,83.52
2022-11-18T01:50:52.268Z,82.74
2022-11-18T01:55:58.104Z,85.30
2022-11-18T02:01:00.371Z,86.37
2022-11-18T02:06:05.074Z,88.76
2022-11-18T02:11:30.955Z,89.18
2022-11-18T02:16:45.836Z,84.40
2022-11-18T02:22:00.700Z,83.50
2022-11-18T02:27:41.648Z,83.15
2022-11-18T02:32:46.174Z,84.56
2022-11-18T02:38:02.886Z,87.16
2022-11-18T02:43:13.887Z,87.06
2022-11-18T02:48:17.862Z,82.65
2022-11-18T02:53:21.716Z,85.24
2022-11-18T02:58:26.287Z,82.76
2022-11-18T03:03:36.275Z,82.68
2022-11-18T03:08:46.237Z,81.00
2022-11-18T03:14:18.877Z,82.75
2022-11-18T03:19:38.055Z,80.96
2022-11-18T03:24:45.809Z,81.73
2022-11-18T03:29:55.131Z,82.36
2022-11-18T03:35:05.919Z,84.97
2022-11-18T03:40:30.491Z,81.95
2022-11-18T03:45:39.500Z,83.99
2022-11-18T03:51:04.923Z,81.41
2022-11-18T03:56:17.211Z,83.87
2022-11-18T04:01:31.975Z,82.38
2022-11-18T04:06:46.304Z,82.99
2022-11-18T04:12:02.759Z,84.48
2022-11-18T04:17:13.749Z,80.95
2022-11-18T04:22:16.370Z,80.69
2022-11-18T04:27:18.281Z,82.72
2022-11-18T04:32:20.110Z,79.81
2022-11-18T04:37:21.980Z,83.99
2022-11-18T04:42:23.862Z,82.69
2022-11-18T04:47:25.814Z,85.41
2022-11-18T04:52:27.703Z,81.77
2022-11-18T04:57:29.588Z,82.26
2022-11-18T05:02:31.504Z,80.59
2022-11-18T05:07:33.409Z,85.17
2022-11-18T05:12:50.684Z,83.83
2022-11-18T05:17:52.575Z,82.00
2022-11-18T05:22:54.517Z,81.96
2022-11-18T05:27:56.388Z,82.92
2022-11-18T05:32:58.211Z,82.28
2022-11-18T05:38:01.522Z,81.28
2022-11-18T05:43:12.571Z,83.69
2022-11-18T05:48:14.673Z,83.21
2022-11-18T05:53:18.902Z,81.86
2022-11-18T05:58:20.853Z,84.39
2022-11-18T06:03:30.676Z,81.80
2022-11-18T06:08:45.263Z,83.27
2022-11-18T06:14:10.307Z,86.51
2022-11-18T06:19:12.269Z,85.95
2022-11-18T06:24:14.834Z,87.37
2022-11-18T06:29:21.662Z,86.10
2022-11-18T06:34:26.479Z,87.45
2022-11-18T06:39:28.610Z,85.46
2022-11-18T06:44:30.518Z,84.35
2022-11-18T06:49:32.566Z,82.99
2022-11-18T06:54:34.426Z,86.14
2022-11-18T06:59:36.298Z,82.41
2022-11-18T07:04:41.108Z,83.85
2022-11-18T07:09:43.019Z,84.11
2022-11-18T07:14:44.840Z,81.86
2022-11-18T07:19:46.713Z,81.18
2022-11-18T07:24:48.701Z,82.29
2022-11-18T07:29:50.577Z,83.88
2022-11-18T07:34:52.438Z,83.20
2022-11-18T07:39:54.286Z,81.74
2022-11-18T07:44:56.152Z,82.50
2022-11-18T07:49:58.002Z,84.67
2022-11-18T07:54:59.887Z,82.59
2022-11-18T08:00:01.966Z,84.92
2022-11-18T08:05:17.891Z,84.51
2022-11-18T08:10:20.054Z,85.40
2022-11-18T08:15:21.954Z,84.77
2022-11-18T08:20:27.427Z,82.04
2022-11-18T08:25:29.542Z,82.76
2022-11-18T08:30:33.456Z,83.41
2022-11-18T08:35:35.445Z,83.67
2022-11-18T08:40:37.520Z,82.43
2022-11-18T08:45:40.703Z,84.20
2022-11-18T08:50:42.548Z,85.66
2022-11-18T08:55:44.400Z,84.77
2022-11-18T09:00:46.316Z,86.82
2022-11-18T09:05:48.570Z,85.44
2022-11-18T09:10:50.503Z,83.32
2022-11-18T09:15:52.316Z,83.78
2022-11-18T09:20:58.352Z,82.42
2022-11-18T09:26:09.253Z,84.77
2022-11-18T09:31:13.894Z,81.28
2022-11-18T09:36:21.640Z,81.00
2022-11-18T09:41:43.781Z,80.89
2022-11-18T09:46:48.266Z,83.31
2022-11-18T09:51:52.623Z,85.41
2022-11-18T09:56:55.861Z,85.69
2022-11-18T10:02:14.716Z,86.76
2022-11-18T10:07:22.662Z,83.90
2022-11-18T10:12:40.257Z,84.11
2022-11-18T10:17:57.550Z,84.25
2022-11-18T10:23:21.796Z,80.90
2022-11-18T10:28:26.486Z,83.43
2022-11-18T10:33:29.327Z,83.82
2022-11-18T10:38:31.997Z,83.57
2022-11-18T10:43:55.218Z,83.63
2022-11-18T10:49:09.473Z,84.97
2022-11-18T10:54:14.356Z,84.49
2022-11-18T10:59:38.962Z,83.22
2022-11-18T11:04:41.864Z,84.14
2022-11-18T11:09:43.752Z,84.26
2022-11-18T11:14:54.970Z,85.50
2022-11-18T11:20:15.311Z,85.37
2022-11-18T11:25:18.916Z,84.06
2022-11-18T11:30:23.463Z,83.16
2022-11-18T11:36:11.648Z,83.68
2022-11-18T11:41:23.653Z,82.92
2022-11-18T11:46:28.356Z,81.89
2022-11-18T11:51:42.349Z,82.20
2022-11-18T11:56:58.045Z,84.48
2022-11-18T12:02:29.619Z,85.77
2022-11-18T12:07:39.326Z,85.83
2022-11-18T12:12:50.639Z,84.97
2022-11-18T12:18:14.638Z,82.22
2022-11-18T12:23:20.744Z,83.35
2022-11-18T12:28:31.604Z,82.60
2022-11-18T12:33:33.438Z,82.66
2022-11-18T12:38:35.444Z,82.41
2022-11-18T12:43:50.783Z,82.10
2022-11-18T12:48:53.187Z,81.65
2022-11-18T12:53:55.074Z,84.06
2022-11-18T12:59:01.972Z,82.65
2022-11-18T13:04:20.131Z,83.29
2022-11-18T13:09:25.304Z,80.94
2022-11-18T13:14:53.283Z,80.43
2022-11-18T13:19:58.807Z,82.52
2022-11-18T13:25:00.707Z,80.22
2022-11-18T13:30:14.042Z,80.51
2022-11-18T13:35:21.864Z,81.68
2022-11-18T13:40:27.670Z,80.22
2022-11-18T13:45:31.203Z,84.43
2022-11-18T13:50:41.025Z,83.60
2022-11-18T13:55:52.072Z,81.68
2022-11-18T14:01:00.921Z,80.43
2022-11-18T14:06:03.142Z,79.79
2022-11-18T14:11:06.705Z,80.90
2022-11-18T14:16:17.852Z,82.56
2022-11-18T14:21:31.230Z,82.08
2022-11-18T14:26:37.192Z,79.89
2022-11-18T14:31:39.332Z,79.30
2022-11-18T14:36:41.311Z,78.75
2022-11-18T14:41:49.159Z,79.20
2022-11-18T14:47:00.081Z,80.75
2022-11-18T14:52:02.990Z,78.20
2022-11-18T14:57:05.935Z,78.31
2022-11-18T15:02:18.005Z,77.20
2022-11-18T15:07:23.822Z,76.48
2022-11-18T15:12:26.883Z,80.49
2022-11-18T15:17:29.905Z,77.32
2022-11-18T15:22:31.836Z,77.83
2022-11-18T15:27:34.369Z,78.07
2022-11-18T15:32:36.220Z,77.76
2022-11-18T15:37:38.448Z,77.24
2022-11-18T15:42:50.433Z,77.54
2022-11-18T15:47:53.883Z,77.60
2022-11-18T15:52:55.894Z,78.21
2022-11-18T15:57:57.723Z,80.48
2022-11-18T16:02:59.490Z,79.26
2022-11-18T16:08:01.309Z,76.72
2022-11-18T16:13:03.121Z,79.81
2022-11-18T16:18:05.575Z,75.21
2022-11-18T16:23:07.481Z,74.27
2022-11-18T16:28:09.395Z,79.25
2022-11-18T16:33:11.343Z,80.18
2022-11-18T16:38:13.438Z,80.70
2022-11-18T16:43:15.261Z,81.68
2022-11-18T16:48:17.137Z,79.49
2022-11-18T16:53:18.979Z,77.75
2022-11-18T16:58:20.807Z,76.28
2022-11-18T17:03:23.473Z,76.91
2022-11-18T17:08:25.312Z,77.06
2022-11-18T17:13:28.344Z,76.39
2022-11-18T17:18:30.200Z,76.07
2022-11-18T17:23:32.135Z,79.04
2022-11-18T17:28:36.685Z,76.79
2022-11-18T17:33:39.335Z,77.04
2022-11-18T17:38:43.435Z,78.26
2022-11-18T17:43:45.250Z,75.07
2022-11-18T17:48:47.241Z,74.15
2022-11-18T17:53:49.729Z,77.42
2022-11-18T17:58:52.881Z,74.92
2022-11-18T18:03:54.835Z,77.45
2022-11-18T18:08:57.886Z,78.75
2022-11-18T18:14:15.114Z,81.42
2022-11-18T18:19:20.155Z,78.26
2022-11-18T18:24:22.452Z,77.25
2022-11-18T18:29:25.847Z,79.41
2022-11-18T18:34:28.883Z,75.72
2022-11-18T18:39:30.749Z,75.95
2022-11-18T18:44:51.336Z,75.16
2022-11-18T18:49:53.238Z,77.13
2022-11-18T18:54:55.146Z,76.86
2022-11-18T18:59:56.984Z,75.43
2022-11-18T19:04:59.893Z,76.08
2022-11-18T19:10:02.084Z,74.94
2022-11-18T19:15:04.425Z,76.01
2022-11-18T19:20:26.653Z,75.89
2022-11-18T19:25:28.640Z,76.68
2022-11-18T19:30:30.599Z,76.30
2022-11-18T19:35:32.523Z,74.26
2022-11-18T19:40:34.345Z,73.49
2022-11-18T19:45:36.176Z,73.47
2022-11-18T19:50:38.013Z,78.69
2022-11-18T19:55:39.865Z,76.05
2022-11-18T20:00:41.826Z,73.50
2022-11-18T20:05:53.262Z,74.97
2022-11-18T20:10:55.075Z,76.55
2022-11-18T20:16:21.004Z,78.25
2022-11-18T20:21:24.442Z,77.72
2022-11-18T20:26:38.582Z,76.34
2022-11-18T20:31:41.139Z,75.20
2022-11-18T20:36:43.344Z,73.75
2022-11-18T20:42:05.402Z,76.10
2022-11-18T20:47:07.342Z,73.63
2022-11-18T20:52:09.187Z,74.38
2022-11-18T20:57:11.282Z,75.47
2022-11-18T21:02:13.094Z,77.18
2022-11-18T21:07:15.015Z,76.81
2022-11-18T21:12:16.985Z,78.27
2022-11-18T21:17:19.268Z,79.34
2022-11-18T21:22:21.166Z,80.12
2022-11-18T21:27:23.034Z,79.77
2022-11-18T21:32:24.919Z,77.04
2022-11-18T21:37:26.751Z,74.65
2022-11-18T21:42:28.618Z,79.11
2022-11-18T21:47:30.470Z,80.70
2022-11-18T21:52:32.434Z,79.68
2022-11-18T21:57:34.371Z,81.09
2022-11-18T22:02:36.420Z,81.76
2022-11-18T22:07:38.341Z,82.12
2022-11-18T22:12:49.181Z,80.89
2022-11-18T22:17:51.049Z,80.74
2022-11-18T22:22:52.942Z,81.57
2022-11-18T22:27:55.514Z,80.70
2022-11-18T22:32:57.411Z,81.21
2022-11-18T22:37:59.383Z,80.92
2022-11-18T22:43:01.476Z,81.11
2022-11-18T22:48:08.884Z,81.78
2022-11-18T22:53:11.922Z,81.24
2022-11-18T22:58:13.731Z,81.52
2022-11-18T23:03:15.637Z,82.64
2022-11-18T23:08:17.487Z,83.78
2022-11-18T23:13:38.245Z,84.09
2022-11-18T23:18:40.170Z,84.48
2022-11-18T23:23:42.014Z,83.54
2022-11-18T23:28:43.977Z,83.18
2022-11-18T23:33:46.636Z,82.84
2022-11-18T23:38:48.712Z,82.65
2022-11-18T23:43:52.195Z,81.91
2022-11-18T23:48:54.096Z,83.19
2022-11-18T23:53:57.697Z,84.14
2022-11-18T23:58:59.558Z,82.69
